sensor_id;sensor_type;location;lat;lon;timestamp;pressure;altitude;pressure_sealevel;temperature;humidity
23303;BME280;11820;48.738;9.092;2023-04-28T00:02:12;96131.19;;;12.79;100.00
23303;BME280;11820;48.738;9.092;2023-04-28T00:04:37;96117.22;;;12.80;100.00
23303;BME280;11820;48.738;9.092;2023-04-28T00:07:03;96106.66;;;12.81;100.00
23303;BME280;11820;48.738;9.092;2023-04-28T00:09:28;96104.63;;;12.83;100.00
23303;BME280;11820;48.738;9.092;2023-04-28T00:11:53;96109.16;;;12.88;100.00
23303;BME280;11820;48.738;9.092;2023-04-28T00:14:19;96113.78;;;12.86;100.00
23303;BME280;11820;48.738;9.092;2023-04-28T00:16:44;96114.75;;;12.91;100.00
23303;BME280;11820;48.738;9.092;2023-04-28T00:19:09;96114.34;;;12.88;100.00
23303;BME280;11820;48.738;9.092;2023-04-28T00:21:35;96111.56;;;12.89;100.00
23303;BME280;11820;48.738;9.092;2023-04-28T00:24:00;96103.19;;;12.94;100.00
23303;BME280;11820;48.738;9.092;2023-04-28T00:26:25;96099.41;;;12.90;100.00
23303;BME280;11820;48.738;9.092;2023-04-28T00:28:51;96104.59;;;12.90;100.00
23303;BME280;11820;48.738;9.092;2023-04-28T00:31:16;96103.19;;;12.87;100.00
23303;BME280;11820;48.738;9.092;2023-04-28T00:33:42;96098.78;;;12.88;100.00
23303;BME280;11820;48.738;9.092;2023-04-28T00:36:08;96092.00;;;12.87;100.00
23303;BME280;11820;48.738;9.092;2023-04-28T00:38:34;96097.44;;;12.85;100.00
23303;BME280;11820;48.738;9.092;2023-04-28T00:40:59;96097.19;;;12.87;100.00
23303;BME280;11820;48.738;9.092;2023-04-28T00:43:25;96088.84;;;12.85;100.00
23303;BME280;11820;48.738;9.092;2023-04-28T00:45:51;96090.44;;;12.86;100.00
23303;BME280;11820;48.738;9.092;2023-04-28T00:48:17;96091.44;;;12.85;100.00
23303;BME280;11820;48.738;9.092;2023-04-28T00:50:43;96084.22;;;12.87;100.00
23303;BME280;11820;48.738;9.092;2023-04-28T00:53:10;96086.63;;;12.88;100.00
23303;BME280;11820;48.738;9.092;2023-04-28T00:55:36;96085.22;;;12.86;100.00
23303;BME280;11820;48.738;9.092;2023-04-28T00:58:02;96084.03;;;12.88;100.00
23303;BME280;11820;48.738;9.092;2023-04-28T01:00:28;96062.09;;;12.84;100.00
23303;BME280;11820;48.738;9.092;2023-04-28T01:02:54;96069.47;;;12.87;100.00
23303;BME280;11820;48.738;9.092;2023-04-28T01:05:23;96068.03;;;12.91;100.00
23303;BME280;11820;48.738;9.092;2023-04-28T01:07:50;96072.44;;;12.91;100.00
23303;BME280;11820;48.738;9.092;2023-04-28T01:10:16;96073.22;;;12.91;100.00
23303;BME280;11820;48.738;9.092;2023-04-28T01:12:41;96069.22;;;12.88;100.00
23303;BME280;11820;48.738;9.092;2023-04-28T01:15:11;96070.22;;;12.94;100.00
23303;BME280;11820;48.738;9.092;2023-04-28T01:17:39;96072.03;;;12.94;100.00
23303;BME280;11820;48.738;9.092;2023-04-28T01:20:05;96062.00;;;12.97;100.00
23303;BME280;11820;48.738;9.092;2023-04-28T01:22:31;96049.25;;;12.96;100.00
23303;BME280;11820;48.738;9.092;2023-04-28T01:24:56;96054.06;;;12.92;100.00
23303;BME280;11820;48.738;9.092;2023-04-28T01:27:23;96052.28;;;12.93;100.00
23303;BME280;11820;48.738;9.092;2023-04-28T01:29:48;96044.84;;;12.96;100.00
23303;BME280;11820;48.738;9.092;2023-04-28T01:32:14;96036.06;;;12.97;100.00
23303;BME280;11820;48.738;9.092;2023-04-28T01:34:39;96039.22;;;12.99;100.00
23303;BME280;11820;48.738;9.092;2023-04-28T01:37:04;96038.03;;;13.01;100.00
23303;BME280;11820;48.738;9.092;2023-04-28T01:39:30;96038.59;;;13.03;100.00
23303;BME280;11820;48.738;9.092;2023-04-28T01:41:55;96041.72;;;13.12;100.00
23303;BME280;11820;48.738;9.092;2023-04-28T01:44:20;96029.94;;;13.09;100.00
23303;BME280;11820;48.738;9.092;2023-04-28T01:46:46;96033.56;;;13.08;100.00
23303;BME280;11820;48.738;9.092;2023-04-28T01:49:11;96031.53;;;12.93;100.00
23303;BME280;11820;48.738;9.092;2023-04-28T01:51:36;96023.75;;;12.93;100.00
23303;BME280;11820;48.738;9.092;2023-04-28T01:54:01;96026.47;;;12.98;100.00
23303;BME280;11820;48.738;9.092;2023-04-28T01:56:27;96030.28;;;12.71;100.00
23303;BME280;11820;48.738;9.092;2023-04-28T01:58:52;96022.22;;;12.79;100.00
23303;BME280;11820;48.738;9.092;2023-04-28T02:01:17;96035.50;;;12.64;100.00
23303;BME280;11820;48.738;9.092;2023-04-28T02:03:43;96028.78;;;12.57;100.00
23303;BME280;11820;48.738;9.092;2023-04-28T02:06:08;96026.56;;;12.85;100.00
23303;BME280;11820;48.738;9.092;2023-04-28T02:08:34;96018.13;;;12.96;100.00
23303;BME280;11820;48.738;9.092;2023-04-28T02:10:59;96009.03;;;13.04;100.00
23303;BME280;11820;48.738;9.092;2023-04-28T02:13:25;96004.00;;;13.09;100.00
23303;BME280;11820;48.738;9.092;2023-04-28T02:15:51;96003.34;;;13.14;100.00
23303;BME280;11820;48.738;9.092;2023-04-28T02:18:16;95998.75;;;13.16;100.00
23303;BME280;11820;48.738;9.092;2023-04-28T02:20:41;96010.50;;;13.18;100.00
23303;BME280;11820;48.738;9.092;2023-04-28T02:23:07;96007.75;;;13.13;100.00
23303;BME280;11820;48.738;9.092;2023-04-28T02:25:32;96006.16;;;13.12;100.00
23303;BME280;11820;48.738;9.092;2023-04-28T02:27:58;96005.53;;;13.17;100.00
23303;BME280;11820;48.738;9.092;2023-04-28T02:30:23;96008.69;;;13.19;100.00
23303;BME280;11820;48.738;9.092;2023-04-28T02:32:48;96008.25;;;13.22;100.00
23303;BME280;11820;48.738;9.092;2023-04-28T02:35:14;96001.84;;;13.24;100.00
23303;BME280;11820;48.738;9.092;2023-04-28T02:37:39;95997.03;;;13.28;100.00
23303;BME280;11820;48.738;9.092;2023-04-28T02:40:05;96000.59;;;13.27;100.00
23303;BME280;11820;48.738;9.092;2023-04-28T02:42:31;95988.44;;;13.27;100.00
23303;BME280;11820;48.738;9.092;2023-04-28T02:44:56;96004.66;;;13.23;100.00
23303;BME280;11820;48.738;9.092;2023-04-28T02:47:21;96004.00;;;13.27;100.00
23303;BME280;11820;48.738;9.092;2023-04-28T02:49:47;96004.16;;;13.32;100.00
23303;BME280;11820;48.738;9.092;2023-04-28T02:52:12;96008.56;;;13.32;100.00
23303;BME280;11820;48.738;9.092;2023-04-28T02:54:37;96007.75;;;13.31;100.00
23303;BME280;11820;48.738;9.092;2023-04-28T02:57:02;96013.66;;;13.38;100.00
23303;BME280;11820;48.738;9.092;2023-04-28T02:59:29;96010.72;;;13.35;100.00
23303;BME280;11820;48.738;9.092;2023-04-28T03:01:55;96018.72;;;13.33;100.00
23303;BME280;11820;48.738;9.092;2023-04-28T03:04:20;96019.28;;;13.35;100.00
23303;BME280;11820;48.738;9.092;2023-04-28T03:06:46;96009.78;;;13.29;100.00
23303;BME280;11820;48.738;9.092;2023-04-28T03:09:11;96005.81;;;13.27;100.00
23303;BME280;11820;48.738;9.092;2023-04-28T03:11:38;96003.44;;;13.25;100.00
23303;BME280;11820;48.738;9.092;2023-04-28T03:14:03;96003.88;;;13.22;100.00
23303;BME280;11820;48.738;9.092;2023-04-28T03:16:28;96000.69;;;13.20;100.00
23303;BME280;11820;48.738;9.092;2023-04-28T03:18:54;96003.50;;;13.19;100.00
23303;BME280;11820;48.738;9.092;2023-04-28T03:21:19;95990.38;;;13.14;100.00
23303;BME280;11820;48.738;9.092;2023-04-28T03:23:45;95985.56;;;13.17;100.00
23303;BME280;11820;48.738;9.092;2023-04-28T03:26:10;95989.06;;;13.23;100.00
23303;BME280;11820;48.738;9.092;2023-04-28T03:28:35;95990.38;;;13.14;100.00
23303;BME280;11820;48.738;9.092;2023-04-28T03:31:01;95989.16;;;13.16;100.00
23303;BME280;11820;48.738;9.092;2023-04-28T03:33:27;95985.38;;;13.12;100.00
23303;BME280;11820;48.738;9.092;2023-04-28T03:35:52;95973.94;;;13.20;100.00
23303;BME280;11820;48.738;9.092;2023-04-28T03:38:18;95986.75;;;13.15;100.00
23303;BME280;11820;48.738;9.092;2023-04-28T03:40:43;95988.84;;;13.06;100.00
23303;BME280;11820;48.738;9.092;2023-04-28T03:43:09;95986.41;;;13.11;100.00
23303;BME280;11820;48.738;9.092;2023-04-28T03:45:35;95990.56;;;13.12;100.00
23303;BME280;11820;48.738;9.092;2023-04-28T03:48:00;95983.97;;;13.16;100.00
23303;BME280;11820;48.738;9.092;2023-04-28T03:50:25;95977.81;;;13.11;100.00
23303;BME280;11820;48.738;9.092;2023-04-28T03:52:51;95976.59;;;13.13;100.00
23303;BME280;11820;48.738;9.092;2023-04-28T03:55:16;95975.59;;;13.14;100.00
23303;BME280;11820;48.738;9.092;2023-04-28T03:57:42;95968.78;;;13.13;100.00
23303;BME280;11820;48.738;9.092;2023-04-28T04:00:08;95966.81;;;13.15;100.00
23303;BME280;11820;48.738;9.092;2023-04-28T04:02:34;95971.41;;;13.13;100.00
23303;BME280;11820;48.738;9.092;2023-04-28T04:04:59;95970.25;;;13.09;100.00
23303;BME280;11820;48.738;9.092;2023-04-28T04:07:24;95968.66;;;13.08;100.00
23303;BME280;11820;48.738;9.092;2023-04-28T04:09:50;95964.91;;;13.04;100.00
23303;BME280;11820;48.738;9.092;2023-04-28T04:12:15;95965.34;;;13.01;100.00
23303;BME280;11820;48.738;9.092;2023-04-28T04:14:41;95962.53;;;13.03;100.00
23303;BME280;11820;48.738;9.092;2023-04-28T04:17:06;95965.91;;;13.03;100.00
23303;BME280;11820;48.738;9.092;2023-04-28T04:19:31;95968.94;;;13.00;100.00
23303;BME280;11820;48.738;9.092;2023-04-28T04:21:57;95959.13;;;13.02;100.00
23303;BME280;11820;48.738;9.092;2023-04-28T04:24:22;95976.88;;;13.05;100.00
23303;BME280;11820;48.738;9.092;2023-04-28T04:26:47;95960.97;;;13.02;100.00
23303;BME280;11820;48.738;9.092;2023-04-28T04:29:13;95952.50;;;13.06;100.00
23303;BME280;11820;48.738;9.092;2023-04-28T04:31:38;95960.72;;;13.03;100.00
23303;BME280;11820;48.738;9.092;2023-04-28T04:34:03;95959.34;;;13.01;100.00
23303;BME280;11820;48.738;9.092;2023-04-28T04:36:29;95962.31;;;13.04;100.00
23303;BME280;11820;48.738;9.092;2023-04-28T04:38:54;95966.22;;;12.96;100.00
23303;BME280;11820;48.738;9.092;2023-04-28T04:41:20;95959.78;;;12.98;100.00
23303;BME280;11820;48.738;9.092;2023-04-28T04:43:45;95967.56;;;12.98;100.00
23303;BME280;11820;48.738;9.092;2023-04-28T04:46:12;95955.59;;;12.97;100.00
23303;BME280;11820;48.738;9.092;2023-04-28T04:48:37;95955.97;;;13.00;100.00
23303;BME280;11820;48.738;9.092;2023-04-28T04:51:02;95955.59;;;12.97;100.00
23303;BME280;11820;48.738;9.092;2023-04-28T04:53:28;95946.97;;;13.03;100.00
23303;BME280;11820;48.738;9.092;2023-04-28T04:55:53;95950.66;;;12.89;100.00
23303;BME280;11820;48.738;9.092;2023-04-28T04:58:19;95948.25;;;12.94;100.00
23303;BME280;11820;48.738;9.092;2023-04-28T05:00:44;95942.69;;;12.91;100.00
23303;BME280;11820;48.738;9.092;2023-04-28T05:03:10;95943.94;;;12.82;100.00
23303;BME280;11820;48.738;9.092;2023-04-28T05:05:36;95954.03;;;12.72;100.00
23303;BME280;11820;48.738;9.092;2023-04-28T05:08:01;95952.44;;;12.71;100.00
23303;BME280;11820;48.738;9.092;2023-04-28T05:10:27;95960.63;;;12.50;100.00
23303;BME280;11820;48.738;9.092;2023-04-28T05:12:53;95955.72;;;12.60;100.00
23303;BME280;11820;48.738;9.092;2023-04-28T05:15:18;95951.13;;;12.62;100.00
23303;BME280;11820;48.738;9.092;2023-04-28T05:17:43;95951.28;;;12.67;100.00
23303;BME280;11820;48.738;9.092;2023-04-28T05:20:09;95946.53;;;12.64;100.00
23303;BME280;11820;48.738;9.092;2023-04-28T05:22:35;95944.72;;;12.64;100.00
23303;BME280;11820;48.738;9.092;2023-04-28T05:25:00;95949.97;;;12.58;100.00
23303;BME280;11820;48.738;9.092;2023-04-28T05:27:25;95950.72;;;12.40;100.00
23303;BME280;11820;48.738;9.092;2023-04-28T05:29:50;95949.03;;;12.52;100.00
23303;BME280;11820;48.738;9.092;2023-04-28T05:32:16;95945.69;;;12.45;100.00
23303;BME280;11820;48.738;9.092;2023-04-28T05:34:41;95941.66;;;12.49;100.00
23303;BME280;11820;48.738;9.092;2023-04-28T05:37:06;95947.38;;;12.58;100.00
23303;BME280;11820;48.738;9.092;2023-04-28T05:39:32;95943.50;;;12.67;100.00
23303;BME280;11820;48.738;9.092;2023-04-28T05:41:57;95941.16;;;12.59;100.00
23303;BME280;11820;48.738;9.092;2023-04-28T05:44:25;95944.56;;;12.59;100.00
23303;BME280;11820;48.738;9.092;2023-04-28T05:46:51;95947.91;;;12.66;100.00
23303;BME280;11820;48.738;9.092;2023-04-28T05:49:16;95942.75;;;12.60;100.00
23303;BME280;11820;48.738;9.092;2023-04-28T05:51:41;95936.75;;;12.66;100.00
23303;BME280;11820;48.738;9.092;2023-04-28T05:54:07;95941.75;;;12.61;100.00
23303;BME280;11820;48.738;9.092;2023-04-28T05:56:32;95937.13;;;12.63;100.00
23303;BME280;11820;48.738;9.092;2023-04-28T05:58:58;95930.16;;;12.63;100.00
23303;BME280;11820;48.738;9.092;2023-04-28T06:01:24;95936.22;;;12.57;100.00
23303;BME280;11820;48.738;9.092;2023-04-28T06:03:50;95935.56;;;12.62;100.00
23303;BME280;11820;48.738;9.092;2023-04-28T06:06:17;95936.38;;;12.62;100.00
23303;BME280;11820;48.738;9.092;2023-04-28T06:08:42;95926.13;;;12.67;100.00
23303;BME280;11820;48.738;9.092;2023-04-28T06:11:07;95921.00;;;12.61;100.00
23303;BME280;11820;48.738;9.092;2023-04-28T06:13:33;95924.16;;;12.63;100.00
23303;BME280;11820;48.738;9.092;2023-04-28T06:15:58;95921.22;;;12.59;100.00
23303;BME280;11820;48.738;9.092;2023-04-28T06:18:23;95921.75;;;12.68;100.00
23303;BME280;11820;48.738;9.092;2023-04-28T06:20:49;95921.44;;;12.58;100.00
23303;BME280;11820;48.738;9.092;2023-04-28T06:23:14;95930.09;;;12.70;100.00
23303;BME280;11820;48.738;9.092;2023-04-28T06:25:40;95926.38;;;12.66;100.00
23303;BME280;11820;48.738;9.092;2023-04-28T06:28:05;95911.53;;;12.73;100.00
23303;BME280;11820;48.738;9.092;2023-04-28T06:30:32;95916.28;;;12.76;100.00
23303;BME280;11820;48.738;9.092;2023-04-28T06:32:58;95907.94;;;12.92;100.00
23303;BME280;11820;48.738;9.092;2023-04-28T06:35:24;95905.59;;;12.84;100.00
23303;BME280;11820;48.738;9.092;2023-04-28T06:37:49;95906.41;;;12.84;100.00
23303;BME280;11820;48.738;9.092;2023-04-28T06:40:14;95908.31;;;12.95;100.00
23303;BME280;11820;48.738;9.092;2023-04-28T06:42:40;95904.94;;;12.95;100.00
23303;BME280;11820;48.738;9.092;2023-04-28T06:45:05;95908.34;;;12.88;100.00
23303;BME280;11820;48.738;9.092;2023-04-28T06:47:31;95902.44;;;12.82;100.00
23303;BME280;11820;48.738;9.092;2023-04-28T06:49:56;95904.59;;;12.85;100.00
23303;BME280;11820;48.738;9.092;2023-04-28T06:52:22;95893.97;;;12.93;100.00
23303;BME280;11820;48.738;9.092;2023-04-28T06:54:48;95895.97;;;12.91;100.00
23303;BME280;11820;48.738;9.092;2023-04-28T06:57:13;95905.06;;;12.99;100.00
23303;BME280;11820;48.738;9.092;2023-04-28T06:59:38;95893.97;;;12.93;100.00
23303;BME280;11820;48.738;9.092;2023-04-28T07:02:04;95894.31;;;12.96;100.00
23303;BME280;11820;48.738;9.092;2023-04-28T07:04:29;95901.03;;;13.03;100.00
23303;BME280;11820;48.738;9.092;2023-04-28T07:06:55;95890.66;;;13.03;100.00
23303;BME280;11820;48.738;9.092;2023-04-28T07:09:20;95897.84;;;13.01;100.00
23303;BME280;11820;48.738;9.092;2023-04-28T07:11:45;95887.59;;;13.06;100.00
23303;BME280;11820;48.738;9.092;2023-04-28T07:14:11;95876.66;;;13.04;100.00
23303;BME280;11820;48.738;9.092;2023-04-28T07:16:36;95880.53;;;13.13;100.00
23303;BME280;11820;48.738;9.092;2023-04-28T07:19:01;95889.44;;;13.06;100.00
23303;BME280;11820;48.738;9.092;2023-04-28T07:21:27;95882.66;;;13.05;100.00
23303;BME280;11820;48.738;9.092;2023-04-28T07:23:53;95891.06;;;13.00;100.00
23303;BME280;11820;48.738;9.092;2023-04-28T07:26:23;95883.28;;;13.00;100.00
23303;BME280;11820;48.738;9.092;2023-04-28T07:28:49;95884.75;;;12.97;100.00
23303;BME280;11820;48.738;9.092;2023-04-28T07:31:14;95885.69;;;13.02;100.00
23303;BME280;11820;48.738;9.092;2023-04-28T07:33:39;95886.31;;;12.98;100.00
23303;BME280;11820;48.738;9.092;2023-04-28T07:36:05;95884.00;;;13.07;100.00
23303;BME280;11820;48.738;9.092;2023-04-28T07:38:33;95885.00;;;13.06;100.00
23303;BME280;11820;48.738;9.092;2023-04-28T07:40:59;95887.03;;;13.04;100.00
23303;BME280;11820;48.738;9.092;2023-04-28T07:43:24;95887.47;;;13.01;100.00
23303;BME280;11820;48.738;9.092;2023-04-28T07:45:49;95884.25;;;13.06;100.00
23303;BME280;11820;48.738;9.092;2023-04-28T07:48:15;95880.69;;;13.00;100.00
23303;BME280;11820;48.738;9.092;2023-04-28T07:50:40;95885.88;;;13.00;100.00
23303;BME280;11820;48.738;9.092;2023-04-28T07:53:06;95878.75;;;12.96;100.00
23303;BME280;11820;48.738;9.092;2023-04-28T07:55:31;95881.47;;;13.01;100.00
23303;BME280;11820;48.738;9.092;2023-04-28T07:57:57;95891.84;;;13.01;100.00
23303;BME280;11820;48.738;9.092;2023-04-28T08:00:23;95897.16;;;12.95;100.00
23303;BME280;11820;48.738;9.092;2023-04-28T08:02:48;95900.31;;;12.97;100.00
23303;BME280;11820;48.738;9.092;2023-04-28T08:05:15;95898.50;;;12.97;100.00
23303;BME280;11820;48.738;9.092;2023-04-28T08:07:41;95896.84;;;13.02;100.00
23303;BME280;11820;48.738;9.092;2023-04-28T08:10:10;95904.44;;;13.04;100.00
23303;BME280;11820;48.738;9.092;2023-04-28T08:12:36;95898.28;;;12.98;100.00
23303;BME280;11820;48.738;9.092;2023-04-28T08:15:02;95903.25;;;13.00;100.00
23303;BME280;11820;48.738;9.092;2023-04-28T08:17:28;95898.88;;;13.00;100.00
23303;BME280;11820;48.738;9.092;2023-04-28T08:19:53;95908.50;;;13.11;100.00
23303;BME280;11820;48.738;9.092;2023-04-28T08:22:19;95914.28;;;13.13;100.00
23303;BME280;11820;48.738;9.092;2023-04-28T08:24:44;95918.50;;;13.14;100.00
23303;BME280;11820;48.738;9.092;2023-04-28T08:27:09;95920.91;;;13.09;100.00
23303;BME280;11820;48.738;9.092;2023-04-28T08:29:35;95916.97;;;13.07;100.00
23303;BME280;11820;48.738;9.092;2023-04-28T08:32:00;95917.38;;;13.22;100.00
23303;BME280;11820;48.738;9.092;2023-04-28T08:34:26;95923.63;;;13.32;100.00
23303;BME280;11820;48.738;9.092;2023-04-28T08:36:52;95923.13;;;13.42;100.00
23303;BME280;11820;48.738;9.092;2023-04-28T08:39:17;95913.63;;;13.36;100.00
23303;BME280;11820;48.738;9.092;2023-04-28T08:41:44;95920.34;;;13.25;100.00
23303;BME280;11820;48.738;9.092;2023-04-28T08:44:10;95921.63;;;13.34;100.00
23303;BME280;11820;48.738;9.092;2023-04-28T08:46:40;95927.38;;;13.36;100.00
23303;BME280;11820;48.738;9.092;2023-04-28T08:49:06;95928.97;;;13.37;100.00
23303;BME280;11820;48.738;9.092;2023-04-28T08:51:43;95940.28;;;13.43;100.00
23303;BME280;11820;48.738;9.092;2023-04-28T08:54:10;95934.22;;;13.49;100.00
23303;BME280;11820;48.738;9.092;2023-04-28T08:56:38;95941.13;;;13.25;100.00
23303;BME280;11820;48.738;9.092;2023-04-28T08:59:04;95952.50;;;13.42;100.00
23303;BME280;11820;48.738;9.092;2023-04-28T09:01:30;95947.31;;;13.42;100.00
23303;BME280;11820;48.738;9.092;2023-04-28T09:03:56;95942.81;;;13.49;100.00
23303;BME280;11820;48.738;9.092;2023-04-28T09:06:21;95954.63;;;13.63;100.00
23303;BME280;11820;48.738;9.092;2023-04-28T09:08:47;95950.16;;;13.70;100.00
23303;BME280;11820;48.738;9.092;2023-04-28T09:11:13;95950.81;;;13.66;100.00
23303;BME280;11820;48.738;9.092;2023-04-28T09:13:39;95954.47;;;13.76;100.00
23303;BME280;11820;48.738;9.092;2023-04-28T09:16:05;95958.78;;;13.82;100.00
23303;BME280;11820;48.738;9.092;2023-04-28T09:18:31;95962.69;;;13.73;100.00
23303;BME280;11820;48.738;9.092;2023-04-28T09:21:08;95966.81;;;13.81;100.00
23303;BME280;11820;48.738;9.092;2023-04-28T09:23:35;95957.31;;;13.86;100.00
23303;BME280;11820;48.738;9.092;2023-04-28T09:26:10;95963.53;;;13.85;100.00
23303;BME280;11820;48.738;9.092;2023-04-28T09:28:35;95967.41;;;13.94;100.00
23303;BME280;11820;48.738;9.092;2023-04-28T09:31:01;95965.28;;;14.03;100.00
23303;BME280;11820;48.738;9.092;2023-04-28T09:33:27;95963.59;;;14.08;100.00
23303;BME280;11820;48.738;9.092;2023-04-28T09:35:52;95965.53;;;14.13;100.00
23303;BME280;11820;48.738;9.092;2023-04-28T09:38:19;95965.03;;;14.22;100.00
23303;BME280;11820;48.738;9.092;2023-04-28T09:41:01;95962.13;;;14.42;100.00
23303;BME280;11820;48.738;9.092;2023-04-28T09:43:29;95964.88;;;14.69;100.00
23303;BME280;11820;48.738;9.092;2023-04-28T09:45:57;95962.06;;;14.71;100.00
23303;BME280;11820;48.738;9.092;2023-04-28T09:48:27;95963.75;;;14.77;100.00
23303;BME280;11820;48.738;9.092;2023-04-28T09:50:53;95962.38;;;14.86;100.00
23303;BME280;11820;48.738;9.092;2023-04-28T09:53:23;95954.00;;;15.07;100.00
23303;BME280;11820;48.738;9.092;2023-04-28T09:55:52;95957.81;;;15.39;100.00
23303;BME280;11820;48.738;9.092;2023-04-28T09:58:20;95947.97;;;15.69;100.00
23303;BME280;11820;48.738;9.092;2023-04-28T10:00:52;95953.38;;;15.51;100.00
23303;BME280;11820;48.738;9.092;2023-04-28T10:03:23;95956.25;;;15.66;100.00
23303;BME280;11820;48.738;9.092;2023-04-28T10:05:49;95950.44;;;15.75;100.00
23303;BME280;11820;48.738;9.092;2023-04-28T10:08:17;95960.78;;;15.70;100.00
23303;BME280;11820;48.738;9.092;2023-04-28T10:10:44;95961.44;;;15.77;100.00
23303;BME280;11820;48.738;9.092;2023-04-28T10:13:10;95954.91;;;15.63;100.00
23303;BME280;11820;48.738;9.092;2023-04-28T10:15:36;95950.69;;;15.74;100.00
23303;BME280;11820;48.738;9.092;2023-04-28T10:18:02;95958.22;;;15.87;100.00
23303;BME280;11820;48.738;9.092;2023-04-28T10:20:29;95959.50;;;15.84;100.00
23303;BME280;11820;48.738;9.092;2023-04-28T10:25:35;95951.22;;;16.04;100.00
23303;BME280;11820;48.738;9.092;2023-04-28T10:28:05;95959.06;;;15.76;100.00
23303;BME280;11820;48.738;9.092;2023-04-28T10:30:31;95951.66;;;15.84;100.00
23303;BME280;11820;48.738;9.092;2023-04-28T10:33:22;95955.22;;;15.95;100.00
23303;BME280;11820;48.738;9.092;2023-04-28T10:35:48;95958.41;;;15.97;100.00
23303;BME280;11820;48.738;9.092;2023-04-28T10:38:17;95964.75;;;16.01;100.00
23303;BME280;11820;48.738;9.092;2023-04-28T10:43:11;95966.94;;;15.64;100.00
23303;BME280;11820;48.738;9.092;2023-04-28T10:56:15;95961.47;;;16.22;100.00
23303;BME280;11820;48.738;9.092;2023-04-28T10:58:43;95960.03;;;16.30;100.00
23303;BME280;11820;48.738;9.092;2023-04-28T11:04:16;95957.63;;;16.40;100.00
23303;BME280;11820;48.738;9.092;2023-04-28T11:06:43;95959.00;;;16.31;100.00
23303;BME280;11820;48.738;9.092;2023-04-28T11:12:24;95961.91;;;16.46;100.00
23303;BME280;11820;48.738;9.092;2023-04-28T11:16:56;95957.44;;;16.30;100.00
23303;BME280;11820;48.738;9.092;2023-04-28T11:19:27;95962.75;;;16.35;100.00
23303;BME280;11820;48.738;9.092;2023-04-28T11:21:55;95960.72;;;16.37;100.00
23303;BME280;11820;48.738;9.092;2023-04-28T11:24:22;95958.50;;;16.46;100.00
23303;BME280;11820;48.738;9.092;2023-04-28T11:26:49;95961.19;;;16.67;100.00
23303;BME280;11820;48.738;9.092;2023-04-28T11:29:15;95959.41;;;16.89;100.00
23303;BME280;11820;48.738;9.092;2023-04-28T11:31:48;95961.69;;;17.19;100.00
23303;BME280;11820;48.738;9.092;2023-04-28T11:34:18;95957.06;;;17.26;100.00
23303;BME280;11820;48.738;9.092;2023-04-28T11:36:44;95955.69;;;17.61;100.00
23303;BME280;11820;48.738;9.092;2023-04-28T11:39:11;95962.50;;;17.62;100.00
23303;BME280;11820;48.738;9.092;2023-04-28T11:41:39;95956.28;;;17.68;100.00
23303;BME280;11820;48.738;9.092;2023-04-28T11:44:16;95961.34;;;17.75;100.00
23303;BME280;11820;48.738;9.092;2023-04-28T11:46:54;95959.03;;;17.57;100.00
23303;BME280;11820;48.738;9.092;2023-04-28T11:49:23;95963.09;;;17.26;100.00
23303;BME280;11820;48.738;9.092;2023-04-28T11:51:50;95958.81;;;17.20;100.00
23303;BME280;11820;48.738;9.092;2023-04-28T11:54:25;95954.81;;;17.13;100.00
23303;BME280;11820;48.738;9.092;2023-04-28T11:56:52;95965.72;;;17.10;100.00
23303;BME280;11820;48.738;9.092;2023-04-28T11:59:22;95958.63;;;17.05;100.00
23303;BME280;11820;48.738;9.092;2023-04-28T12:02:00;95962.34;;;16.93;100.00
23303;BME280;11820;48.738;9.092;2023-04-28T12:04:41;95967.06;;;16.74;100.00
23303;BME280;11820;48.738;9.092;2023-04-28T12:07:07;95964.19;;;16.76;100.00
23303;BME280;11820;48.738;9.092;2023-04-28T12:09:38;95963.91;;;16.72;100.00
23303;BME280;11820;48.738;9.092;2023-04-28T12:12:06;95960.47;;;16.88;100.00
23303;BME280;11820;48.738;9.092;2023-04-28T12:14:52;95952.09;;;17.24;100.00
23303;BME280;11820;48.738;9.092;2023-04-28T12:17:30;95961.16;;;17.38;100.00
23303;BME280;11820;48.738;9.092;2023-04-28T12:19:57;95966.25;;;17.28;100.00
23303;BME280;11820;48.738;9.092;2023-04-28T12:22:24;95947.38;;;17.43;100.00
23303;BME280;11820;48.738;9.092;2023-04-28T12:25:06;95954.44;;;17.64;100.00
23303;BME280;11820;48.738;9.092;2023-04-28T12:27:32;95948.34;;;17.58;100.00
23303;BME280;11820;48.738;9.092;2023-04-28T12:29:58;95957.03;;;17.42;100.00
23303;BME280;11820;48.738;9.092;2023-04-28T12:32:37;95956.31;;;17.47;100.00
23303;BME280;11820;48.738;9.092;2023-04-28T12:35:04;95961.16;;;17.38;100.00
23303;BME280;11820;48.738;9.092;2023-04-28T12:37:30;95955.25;;;17.26;100.00
23303;BME280;11820;48.738;9.092;2023-04-28T12:39:55;95961.06;;;17.12;100.00
23303;BME280;11820;48.738;9.092;2023-04-28T12:42:21;95965.97;;;17.08;100.00
23303;BME280;11820;48.738;9.092;2023-04-28T12:44:47;95960.75;;;17.08;100.00
23303;BME280;11820;48.738;9.092;2023-04-28T12:47:14;95957.09;;;17.09;100.00
23303;BME280;11820;48.738;9.092;2023-04-28T12:49:39;95957.09;;;17.09;100.00
23303;BME280;11820;48.738;9.092;2023-04-28T12:52:05;95965.00;;;17.14;100.00
23303;BME280;11820;48.738;9.092;2023-04-28T12:54:31;95959.78;;;17.14;100.00
23303;BME280;11820;48.738;9.092;2023-04-28T12:56:56;95963.78;;;17.00;100.00
23303;BME280;11820;48.738;9.092;2023-04-28T12:59:22;95951.84;;;16.88;100.00
23303;BME280;11820;48.738;9.092;2023-04-28T13:01:48;95956.25;;;16.87;100.00
23303;BME280;11820;48.738;9.092;2023-04-28T13:04:13;95954.63;;;16.81;100.00
23303;BME280;11820;48.738;9.092;2023-04-28T13:06:39;95957.28;;;16.86;100.00
23303;BME280;11820;48.738;9.092;2023-04-28T13:09:10;95947.47;;;16.93;100.00
23303;BME280;11820;48.738;9.092;2023-04-28T13:11:35;95944.03;;;17.09;100.00